Time;durP1;ratioP1;P1;durP2;ratioP2;P2;SDS_P1;SDS_P2;PMS_P1;PMS_P2;Temp;Humidity;BMP_temperature;BMP_pressure;BME280_temperature;BME280_humidity;BME280_pressure;Samples;Min_cycle;Max_cycle;Signal;HPM_P1;HPM_P2
2022/05/29 00:02:09;;;;;;;9.70;2.40;;;;;;;9.12;100.00;101898.50;5005253;28;20113;-68
2022/05/29 00:04:36;;;;;;;13.32;3.35;;;;;;;9.13;100.00;101902.00;5007226;28;20025;-68
2022/05/29 00:07:04;;;;;;;9.90;2.22;;;;;;;9.15;99.80;101892.28;5019780;28;20049;-68
2022/05/29 00:09:39;;;;;;;7.38;2.00;;;;;;;9.18;100.00;101897.50;5022655;28;20037;-68
2022/05/29 00:12:07;;;;;;;8.07;2.05;;;;;;;9.16;99.67;101899.31;5003232;28;20017;-68
2022/05/29 00:14:34;;;;;;;9.57;2.20;;;;;;;9.16;99.29;101894.03;5021463;28;20029;-68
2022/05/29 00:16:59;;;;;;;6.75;1.90;;;;;;;9.19;99.44;101886.03;5030057;28;20026;-68
2022/05/29 00:19:25;;;;;;;6.47;2.25;;;;;;;9.31;98.96;101890.16;5010606;28;20032;-68
2022/05/29 00:21:51;;;;;;;10.50;2.42;;;;;;;9.41;97.98;101893.47;5030825;28;20115;-68
2022/05/29 00:24:17;;;;;;;5.78;1.80;;;;;;;9.46;97.49;101889.81;5018997;28;20049;-68
2022/05/29 00:26:42;;;;;;;6.35;1.92;;;;;;;9.48;97.36;101889.78;5027380;28;20112;-68
2022/05/29 00:29:09;;;;;;;6.38;2.22;;;;;;;9.47;96.53;101886.25;5024383;28;20473;-68
2022/05/29 00:31:35;;;;;;;8.63;2.03;;;;;;;9.49;96.05;101883.59;5023092;28;20041;-68
2022/05/29 00:34:01;;;;;;;4.25;1.80;;;;;;;9.51;94.17;101884.41;5000277;28;20748;-67
2022/05/29 00:36:31;;;;;;;6.57;1.80;;;;;;;9.58;93.81;101871.91;4999220;28;20050;-68
2022/05/29 00:38:57;;;;;;;8.02;1.70;;;;;;;9.60;92.44;101878.03;5006345;28;20025;-68
2022/05/29 00:41:33;;;;;;;6.25;1.80;;;;;;;9.59;92.17;101876.28;5012735;28;20460;-68
2022/05/29 00:44:28;;;;;;;6.30;1.77;;;;;;;9.56;92.36;101876.38;5019442;28;20405;-68
2022/05/29 00:46:54;;;;;;;4.72;1.77;;;;;;;9.53;92.14;101866.75;5026233;28;20534;-67
2022/05/29 00:49:31;;;;;;;6.75;1.80;;;;;;;9.48;91.47;101860.69;5018302;28;20068;-67
2022/05/29 00:52:27;;;;;;;5.68;1.52;;;;;;;9.40;92.02;101870.56;5026922;28;20484;-67
2022/05/29 00:54:58;;;;;;;9.00;1.80;;;;;;;9.33;93.04;101869.84;5024620;28;20091;-67
2022/05/29 00:57:48;;;;;;;5.78;1.67;;;;;;;9.26;93.38;101865.59;5029879;28;20481;-67
2022/05/29 01:00:26;;;;;;;6.13;2.40;;;;;;;9.20;93.59;101861.34;5017557;28;20634;-67
2022/05/29 01:02:53;;;;;;;7.47;2.13;;;;;;;9.14;93.93;101857.06;5019117;28;20017;-67
2022/05/29 01:05:20;;;;;;;4.78;1.70;;;;;;;9.13;94.39;101849.16;5012162;28;20049;-68
2022/05/29 01:07:49;;;;;;;7.68;1.83;;;;;;;9.09;94.57;101852.78;5029721;28;20033;-68
2022/05/29 01:10:15;;;;;;;8.52;2.00;;;;;;;9.04;95.55;101846.72;5009038;28;20481;-68
2022/05/29 01:12:52;;;;;;;7.65;2.35;;;;;;;8.96;96.20;101838.97;5013795;28;20489;-68
2022/05/29 01:15:24;;;;;;;9.43;1.90;;;;;;;8.92;96.68;101832.88;5021947;28;20036;-67
2022/05/29 01:18:11;;;;;;;7.15;2.00;;;;;;;8.89;97.59;101827.69;5008527;28;20036;-67
2022/05/29 01:21:04;;;;;;;10.77;2.00;;;;;;;8.89;97.69;101832.06;5026206;28;20536;-67
2022/05/29 01:23:58;;;;;;;8.38;2.88;;;;;;;8.93;98.40;101828.47;5010976;28;20087;-68
2022/05/29 01:26:42;;;;;;;5.40;2.00;;;;;;;8.97;99.35;101827.50;5023017;28;20029;-67
2022/05/29 01:29:15;;;;;;;7.70;1.90;;;;;;;9.06;99.25;101829.94;5020767;28;20025;-67
2022/05/29 01:31:40;;;;;;;5.45;2.20;;;;;;;9.15;99.56;101831.50;5026039;28;20037;-67
2022/05/29 01:34:11;;;;;;;6.95;2.10;;;;;;;9.24;99.75;101819.84;5029690;28;20029;-68
2022/05/29 01:37:12;;;;;;;9.18;2.42;;;;;;;9.35;100.00;101818.69;5016714;28;20056;-68
2022/05/29 01:40:01;;;;;;;8.10;2.40;;;;;;;9.45;99.93;101808.75;5027007;28;20060;-67
2022/05/29 01:42:49;;;;;;;12.60;2.42;;;;;;;9.54;99.49;101809.44;5016463;28;20566;-68
2022/05/29 01:45:54;;;;;;;9.63;2.60;;;;;;;9.61;98.65;101806.59;5023290;28;20694;-66
2022/05/29 01:48:52;;;;;;;8.32;2.10;;;;;;;9.65;97.84;101802.09;5019290;28;20025;-67
2022/05/29 01:51:31;;;;;;;7.38;1.90;;;;;;;9.67;97.77;101805.59;5026535;28;20037;-66
2022/05/29 01:54:18;;;;;;;7.75;1.85;;;;;;;9.68;97.87;101802.03;5013342;28;20025;-67
2022/05/29 01:56:51;;;;;;;7.03;2.30;;;;;;;9.71;97.51;101799.31;5029276;28;20033;-68
2022/05/29 01:59:28;;;;;;;6.35;2.28;;;;;;;9.74;97.33;101803.66;5025441;28;20037;-67
2022/05/29 02:02:03;;;;;;;10.02;2.10;;;;;;;9.74;98.04;101795.72;5025000;28;20033;-66
2022/05/29 02:04:33;;;;;;;11.35;3.47;;;;;;;9.79;97.65;101799.09;5026512;28;20029;-66
2022/05/29 02:10:01;;;;;;;9.23;2.40;;;;;;;9.94;97.47;101790.75;5024130;28;20067;-66
2022/05/29 02:12:29;;;;;;;7.22;1.92;;;;;;;10.01;96.80;101783.50;5023778;28;20087;-66
2022/05/29 02:15:18;;;;;;;6.63;1.80;;;;;;;10.08;96.67;101790.38;5024537;28;20021;-66
2022/05/29 02:17:51;;;;;;;9.07;1.85;;;;;;;10.11;96.26;101792.94;5007055;28;20025;-66
2022/05/29 02:20:22;;;;;;;7.00;2.00;;;;;;;10.16;95.96;101791.03;5012731;28;20235;-67
2022/05/29 02:22:52;;;;;;;9.13;2.25;;;;;;;10.21;95.98;101788.25;5033212;28;20025;-67
2022/05/29 02:25:20;;;;;;;9.20;1.90;;;;;;;10.24;95.51;101792.59;5020456;28;20036;-67
2022/05/29 02:27:54;;;;;;;5.97;2.00;;;;;;;10.28;95.46;101781.00;5023590;28;20033;-67
2022/05/29 02:30:23;;;;;;;8.25;2.00;;;;;;;10.32;94.79;101786.19;5032433;28;20427;-68
2022/05/29 02:32:54;;;;;;;4.93;1.92;;;;;;;10.34;94.44;101780.84;5024889;28;20473;-67
2022/05/29 02:35:28;;;;;;;8.40;1.70;;;;;;;10.38;94.77;101768.41;5016909;28;20540;-67
2022/05/29 02:38:01;;;;;;;7.18;1.83;;;;;;;10.42;94.82;101772.69;5014644;28;20141;-67
2022/05/29 02:40:59;;;;;;;7.38;2.00;;;;;;;10.43;94.60;101769.16;5021994;28;20519;-67
2022/05/29 02:43:46;;;;;;;10.77;1.98;;;;;;;10.45;94.21;101770.84;5022705;28;20043;-67
2022/05/29 02:46:30;;;;;;;11.27;2.42;;;;;;;10.46;94.34;101771.69;5021643;28;20029;-66
2022/05/29 02:49:11;;;;;;;8.65;1.95;;;;;;;10.47;94.76;101768.13;5026599;28;20048;-67
2022/05/29 02:52:05;;;;;;;8.30;1.90;;;;;;;10.48;95.47;101773.38;5031491;28;20095;-67
2022/05/29 02:54:32;;;;;;;10.90;2.30;;;;;;;10.50;95.99;101773.38;5007908;28;20044;-67
2022/05/29 02:57:00;;;;;;;7.55;2.03;;;;;;;10.52;96.16;101768.88;4986765;28;20079;-67
2022/05/29 02:59:32;;;;;;;10.05;1.98;;;;;;;10.51;95.97;101767.13;5024209;28;20032;-66
2022/05/29 03:02:10;;;;;;;7.38;2.15;;;;;;;10.48;94.68;101773.38;5030832;28;20033;-67
2022/05/29 03:04:53;;;;;;;12.55;2.30;;;;;;;10.46;94.76;101759.34;5016730;28;20517;-66
2022/05/29 03:07:55;;;;;;;9.00;1.75;;;;;;;10.40;92.68;101774.53;5005908;28;20133;-67
2022/05/29 03:10:26;;;;;;;4.83;1.43;;;;;;;10.35;92.96;101765.84;4994553;28;20021;-67
2022/05/29 03:12:58;;;;;;;5.70;1.50;;;;;;;10.29;92.66;101757.16;5025166;28;20075;-66
2022/05/29 03:15:38;;;;;;;6.32;1.48;;;;;;;10.21;92.71;101782.13;5008954;28;20025;-66
2022/05/29 03:18:28;;;;;;;3.05;1.35;;;;;;;10.19;94.58;101775.97;4997110;28;20021;-67
2022/05/29 03:21:09;;;;;;;4.00;1.30;;;;;;;10.07;98.67;101779.84;5012216;28;20065;-66
2022/05/29 03:24:12;;;;;;;4.65;1.50;;;;;;;9.90;100.00;101790.88;5026129;28;20044;-66
2022/05/29 03:26:51;;;;;;;5.53;1.55;;;;;;;9.76;100.00;101783.31;5023675;28;20029;-66
2022/05/29 03:29:51;;;;;;;4.32;1.60;;;;;;;9.72;100.00;101790.47;5027664;28;20025;-67
2022/05/29 03:32:18;;;;;;;5.97;1.80;;;;;;;9.70;100.00;101786.97;5013863;28;20045;-66
2022/05/29 03:34:44;;;;;;;7.47;2.55;;;;;;;9.66;100.00;101786.19;5022625;28;20083;-66
2022/05/29 03:37:09;;;;;;;9.57;2.10;;;;;;;9.66;100.00;101778.25;4991482;28;20057;-68
2022/05/29 03:39:35;;;;;;;6.18;2.10;;;;;;;9.63;100.00;101775.69;5028150;28;20112;-68
2022/05/29 03:42:00;;;;;;;4.93;1.80;;;;;;;9.62;100.00;101773.09;5013289;28;20037;-68
2022/05/29 03:44:26;;;;;;;3.17;1.63;;;;;;;9.60;100.00;101766.97;5028330;28;20029;-68
2022/05/29 03:46:51;;;;;;;4.72;2.00;;;;;;;9.58;100.00;101772.31;5012385;28;20042;-68
2022/05/29 03:49:19;;;;;;;4.57;1.80;;;;;;;9.54;100.00;101759.19;5029810;28;20029;-68
2022/05/29 03:51:45;;;;;;;8.13;2.05;;;;;;;9.56;100.00;101763.53;5027398;28;20052;-68
2022/05/29 03:54:11;;;;;;;7.13;1.85;;;;;;;9.61;100.00;101751.06;5025690;28;20397;-68
2022/05/29 03:56:37;;;;;;;8.05;2.50;;;;;;;9.68;100.00;101752.66;5030590;28;20044;-68
2022/05/29 03:59:03;;;;;;;9.68;2.13;;;;;;;9.75;100.00;101753.34;5030479;28;20021;-68
2022/05/29 04:01:29;;;;;;;6.85;2.30;;;;;;;9.83;100.00;101750.50;5025889;28;20709;-69
2022/05/29 04:03:55;;;;;;;7.78;2.38;;;;;;;9.85;100.00;101746.03;5026278;28;20388;-68
2022/05/29 04:06:30;;;;;;;8.35;2.10;;;;;;;9.83;100.00;101742.56;5024992;28;20033;-67
2022/05/29 04:14:26;;;;;;;8.52;2.17;;;;;;;9.88;100.00;101740.66;5025724;28;20685;-67
2022/05/29 04:16:52;;;;;;;8.93;2.20;;;;;;;9.91;100.00;101731.75;5030061;28;20026;-67
2022/05/29 04:19:18;;;;;;;5.97;1.90;;;;;;;9.96;100.00;101735.16;5009411;28;20544;-68
2022/05/29 04:21:44;;;;;;;8.38;2.03;;;;;;;9.93;100.00;101729.94;5010464;28;20120;-68
2022/05/29 04:24:10;;;;;;;6.72;1.98;;;;;;;9.91;100.00;101734.41;5031276;28;20026;-67
2022/05/29 04:26:36;;;;;;;6.32;2.20;;;;;;;9.95;100.00;101725.50;5025140;28;20128;-68
2022/05/29 04:29:03;;;;;;;6.93;1.88;;;;;;;9.96;100.00;101738.69;5030343;28;20029;-68
2022/05/29 04:31:29;;;;;;;6.25;1.95;;;;;;;10.00;100.00;101734.16;5012489;28;20083;-68
2022/05/29 04:33:55;;;;;;;6.78;2.00;;;;;;;10.06;100.00;101730.47;5027277;28;20025;-68
2022/05/29 04:36:20;;;;;;;7.95;2.30;;;;;;;10.09;100.00;101736.56;5023062;28;20119;-68
2022/05/29 04:38:45;;;;;;;5.75;1.80;;;;;;;10.01;100.00;101743.81;5012582;28;20037;-68
2022/05/29 04:41:11;;;;;;;10.68;2.25;;;;;;;9.94;100.00;101742.28;5008850;28;20053;-69
2022/05/29 04:43:36;;;;;;;6.05;1.75;;;;;;;9.85;100.00;101743.38;4993287;28;20029;-68
2022/05/29 04:46:03;;;;;;;6.40;1.75;;;;;;;9.80;100.00;101743.50;5029257;28;20025;-67
2022/05/29 04:48:28;;;;;;;4.68;1.55;;;;;;;9.72;100.00;101739.31;5027070;28;20037;-69
2022/05/29 04:51:03;;;;;;;4.85;1.70;;;;;;;9.69;100.00;101735.00;5012459;28;20030;-68
2022/05/29 04:53:30;;;;;;;4.00;1.73;;;;;;;9.75;100.00;101731.31;5029352;28;20033;-69
2022/05/29 04:55:57;;;;;;;5.53;1.83;;;;;;;9.86;100.00;101729.25;5025913;28;20434;-68
2022/05/29 04:58:24;;;;;;;6.10;1.83;;;;;;;10.01;100.00;101735.88;5018350;28;20083;-68
2022/05/29 05:00:58;;;;;;;6.90;2.47;;;;;;;9.99;100.00;101730.63;5008321;28;20087;-68
2022/05/29 05:03:24;;;;;;;4.60;1.75;;;;;;;9.97;100.00;101732.47;5027912;28;20025;-68
2022/05/29 05:05:49;;;;;;;5.07;1.80;;;;;;;10.04;100.00;101729.63;5026702;28;20373;-68
2022/05/29 05:08:14;;;;;;;5.05;1.60;;;;;;;10.03;100.00;101723.50;5008542;28;20081;-68
2022/05/29 05:10:41;;;;;;;6.50;1.70;;;;;;;10.05;100.00;101729.63;5012636;28;20017;-68
2022/05/29 05:13:08;;;;;;;5.63;2.10;;;;;;;9.99;100.00;101722.69;5012023;28;20477;-67
2022/05/29 05:15:34;;;;;;;7.15;1.70;;;;;;;9.78;100.00;101713.59;5026478;28;20417;-68
2022/05/29 05:18:00;;;;;;;6.78;1.80;;;;;;;9.58;100.00;101718.53;5028614;28;20068;-67
2022/05/29 05:20:25;;;;;;;5.53;1.70;;;;;;;9.46;100.00;101723.25;5011948;28;20443;-67
2022/05/29 05:22:51;;;;;;;5.43;1.90;;;;;;;9.51;100.00;101721.38;5013647;28;20121;-68
2022/05/29 05:25:17;;;;;;;4.22;1.95;;;;;;;9.72;100.00;101724.34;4997536;28;20033;-67
2022/05/29 05:27:42;;;;;;;5.43;2.00;;;;;;;9.82;100.00;101728.47;5013876;28;20021;-67
2022/05/29 05:30:09;;;;;;;5.45;1.85;;;;;;;9.87;100.00;101725.69;5013467;28;20036;-67
2022/05/29 05:32:34;;;;;;;5.90;2.20;;;;;;;9.88;100.00;101723.91;5013775;28;20041;-67
2022/05/29 05:35:03;;;;;;;7.43;2.03;;;;;;;9.85;100.00;101724.88;5007298;28;20032;-68
2022/05/29 05:37:29;;;;;;;7.13;2.22;;;;;;;9.81;100.00;101716.16;5012674;28;20125;-68
2022/05/29 05:39:54;;;;;;;5.00;2.00;;;;;;;9.74;100.00;101714.56;5010507;28;20769;-68
2022/05/29 05:42:20;;;;;;;4.93;1.90;;;;;;;9.66;100.00;101720.06;5029149;28;20033;-68
2022/05/29 05:44:46;;;;;;;8.18;2.05;;;;;;;9.66;100.00;101729.78;5027555;28;20559;-68
2022/05/29 05:47:12;;;;;;;11.00;2.63;;;;;;;9.68;100.00;101734.13;5013168;28;20043;-68
2022/05/29 05:49:37;;;;;;;5.40;2.05;;;;;;;9.74;100.00;101738.38;5011442;28;20037;-67
2022/05/29 05:52:03;;;;;;;2.88;1.80;;;;;;;9.76;100.00;101735.72;5029051;28;20025;-68
2022/05/29 05:54:30;;;;;;;7.95;2.22;;;;;;;9.73;100.00;101735.78;5010967;28;20064;-67
2022/05/29 05:56:56;;;;;;;6.28;1.85;;;;;;;9.72;100.00;101729.63;5029002;28;20022;-68
2022/05/29 05:59:21;;;;;;;6.15;2.35;;;;;;;9.78;100.00;101724.19;5011815;28;20036;-68
2022/05/29 06:01:47;;;;;;;6.80;2.22;;;;;;;9.90;100.00;101719.44;5025966;28;20041;-67
2022/05/29 06:04:12;;;;;;;5.38;2.10;;;;;;;10.11;100.00;101721.47;5028486;28;20029;-69
2022/05/29 06:06:38;;;;;;;6.47;1.92;;;;;;;10.36;100.00;101718.16;5006795;28;20048;-67
2022/05/29 06:09:04;;;;;;;4.70;1.80;;;;;;;10.66;100.00;101718.13;4995976;28;20037;-67
2022/05/29 06:11:30;;;;;;;5.93;2.03;;;;;;;11.10;100.00;101717.63;5030469;28;20104;-67
2022/05/29 06:13:55;;;;;;;7.00;2.08;;;;;;;11.44;100.00;101706.72;5013176;28;20060;-67
2022/05/29 06:16:21;;;;;;;5.85;2.00;;;;;;;11.77;100.00;101710.94;5012264;28;20380;-66
2022/05/29 06:18:46;;;;;;;4.38;1.83;;;;;;;11.85;100.00;101708.00;5030063;28;20095;-67
2022/05/29 06:21:12;;;;;;;6.60;2.08;;;;;;;11.85;100.00;101706.19;5013230;28;20037;-68
2022/05/29 06:23:38;;;;;;;9.85;2.30;;;;;;;11.90;100.00;101706.88;5016537;28;20121;-67
2022/05/29 06:26:11;;;;;;;7.00;1.80;;;;;;;11.92;100.00;101697.09;5016500;28;20034;-67
2022/05/29 06:28:36;;;;;;;6.78;2.10;;;;;;;11.99;100.00;101691.59;4996891;28;20052;-68
2022/05/29 06:31:03;;;;;;;7.57;2.00;;;;;;;12.08;100.00;101697.41;4999942;28;20119;-68
2022/05/29 06:33:29;;;;;;;6.95;2.13;;;;;;;12.12;100.00;101690.19;5016178;28;20033;-68
2022/05/29 06:36:05;;;;;;;7.05;2.08;;;;;;;12.17;100.00;101701.50;5016473;28;20069;-67
2022/05/29 06:38:30;;;;;;;7.88;2.00;;;;;;;12.11;100.00;101699.97;5031532;28;20112;-67
2022/05/29 06:40:56;;;;;;;7.30;2.22;;;;;;;11.91;100.00;101719.25;5033371;28;20130;-68
2022/05/29 06:43:21;;;;;;;9.60;2.28;;;;;;;11.51;100.00;101707.41;5016086;28;20034;-69
2022/05/29 06:45:47;;;;;;;9.75;2.20;;;;;;;11.17;100.00;101700.59;5033635;28;20037;-69
2022/05/29 06:48:12;;;;;;;6.47;2.35;;;;;;;10.97;100.00;101712.75;5015312;28;20443;-69
2022/05/29 06:50:37;;;;;;;11.40;2.63;;;;;;;10.96;100.00;101710.13;5033698;28;20030;-68
2022/05/29 06:53:03;;;;;;;7.55;2.20;;;;;;;10.91;100.00;101712.94;5032493;28;20029;-68
2022/05/29 06:55:28;;;;;;;10.45;2.42;;;;;;;11.05;100.00;101708.94;5033605;28;20516;-68
2022/05/29 06:57:53;;;;;;;6.70;2.15;;;;;;;11.15;100.00;101702.41;5015499;28;20037;-69
2022/05/29 07:08:43;;;;;;;5.88;1.70;;;;;;;10.71;100.00;101716.19;5033415;28;20588;-69
2022/05/29 07:11:23;;;;;;;2.45;1.40;;;;;;;10.44;100.00;101716.13;5033385;28;20037;-67
2022/05/29 07:13:48;;;;;;;3.88;1.38;;;;;;;10.28;100.00;101712.19;5033407;28;20041;-68
2022/05/29 07:16:17;;;;;;;4.93;1.98;;;;;;;10.21;100.00;101724.72;5032858;28;20431;-69
2022/05/29 07:18:43;;;;;;;9.00;2.15;;;;;;;10.09;100.00;101719.78;5033441;28;20101;-67
2022/05/29 07:21:08;;;;;;;6.97;2.20;;;;;;;9.89;100.00;101707.16;5033485;28;20061;-65
2022/05/29 07:23:35;;;;;;;8.85;2.17;;;;;;;9.58;100.00;101716.78;4998846;28;20036;-67
2022/05/29 07:26:00;;;;;;;7.25;2.05;;;;;;;9.38;100.00;101719.06;5014798;28;20030;-67
2022/05/29 07:28:26;;;;;;;10.30;2.50;;;;;;;9.26;100.00;101726.41;5015052;28;20460;-68
2022/05/29 07:30:54;;;;;;;6.85;2.00;;;;;;;9.22;100.00;101721.22;5029684;28;20069;-68
2022/05/29 07:33:20;;;;;;;7.10;2.00;;;;;;;9.27;100.00;101711.41;5014438;28;20033;-68
2022/05/29 07:35:46;;;;;;;6.65;2.30;;;;;;;9.45;100.00;101710.94;5032875;28;20551;-69
2022/05/29 07:38:12;;;;;;;8.52;2.88;;;;;;;9.50;100.00;101713.44;5014026;28;20107;-68
2022/05/29 07:40:37;;;;;;;8.35;2.58;;;;;;;9.55;100.00;101708.06;5014636;28;20036;-68
2022/05/29 07:43:22;;;;;;;9.73;2.45;;;;;;;9.60;100.00;101696.44;5032094;28;20029;-68
2022/05/29 07:45:58;;;;;;;8.13;2.35;;;;;;;9.84;100.00;101699.31;5013538;28;20489;-68
2022/05/29 07:48:27;;;;;;;8.57;2.40;;;;;;;9.98;100.00;101691.00;5013619;28;20026;-68
2022/05/29 07:50:53;;;;;;;8.30;2.50;;;;;;;10.07;100.00;101684.56;5031947;28;20095;-68
2022/05/29 07:53:19;;;;;;;9.85;2.65;;;;;;;10.18;100.00;101687.78;5031990;28;20481;-68
2022/05/29 07:55:45;;;;;;;7.65;2.33;;;;;;;10.23;100.00;101691.16;5014476;28;20080;-69
2022/05/29 07:58:12;;;;;;;8.77;2.85;;;;;;;10.23;100.00;101688.50;5032096;28;20033;-70
2022/05/29 08:00:38;;;;;;;11.93;2.90;;;;;;;10.20;100.00;101693.03;5032092;28;20029;-69
2022/05/29 08:03:03;;;;;;;8.50;2.38;;;;;;;10.23;100.00;101703.50;5031883;28;20040;-68
2022/05/29 08:05:33;;;;;;;11.35;2.88;;;;;;;10.18;100.00;101706.31;5032642;28;20026;-69
2022/05/29 08:07:58;;;;;;;9.25;3.28;;;;;;;10.11;100.00;101707.38;5032203;28;20305;-68
2022/05/29 08:10:25;;;;;;;10.85;3.05;;;;;;;10.14;100.00;101702.88;5032140;28;20069;-65
2022/05/29 08:12:51;;;;;;;11.63;2.97;;;;;;;10.11;100.00;101704.75;5031607;28;20536;-64
2022/05/29 08:15:17;;;;;;;7.10;2.80;;;;;;;10.10;100.00;101708.28;5031488;28;20026;-65
2022/05/29 08:17:42;;;;;;;9.15;2.75;;;;;;;10.19;100.00;101701.88;5013864;28;20389;-66
2022/05/29 08:20:10;;;;;;;11.23;2.47;;;;;;;10.33;100.00;101691.72;5030835;28;20033;-67
2022/05/29 08:22:35;;;;;;;8.85;3.00;;;;;;;10.48;100.00;101683.34;5014426;28;20029;-68
2022/05/29 08:30:47;;;;;;;9.45;2.58;;;;;;;11.39;100.00;101695.41;5029491;28;20064;-68
2022/05/29 08:33:26;;;;;;;7.88;2.55;;;;;;;11.68;100.00;101690.03;5000852;28;20025;-68
2022/05/29 08:35:55;;;;;;;5.78;2.22;;;;;;;11.55;100.00;101686.97;5031545;28;20124;-68
2022/05/29 08:38:21;;;;;;;10.65;2.40;;;;;;;11.67;100.00;101686.50;5038381;28;20041;-67
2022/05/29 08:40:57;;;;;;;8.45;1.92;;;;;;;11.88;100.00;101684.88;5017838;28;20037;-67
2022/05/29 08:43:25;;;;;;;6.47;2.13;;;;;;;12.10;100.00;101687.59;5028899;28;20017;-67
2022/05/29 08:45:51;;;;;;;6.38;1.70;;;;;;;12.12;100.00;101692.84;5022736;28;20032;-66
2022/05/29 08:48:20;;;;;;;7.40;1.83;;;;;;;12.18;100.00;101692.63;5028699;28;20025;-67
2022/05/29 08:51:00;;;;;;;6.30;1.60;;;;;;;12.49;100.00;101693.25;5031222;28;20052;-68
2022/05/29 08:53:44;;;;;;;6.90;1.42;;;;;;;12.56;100.00;101692.94;5013085;28;20056;-68
2022/05/29 08:56:25;;;;;;;3.63;1.15;;;;;;;12.67;99.17;101692.50;5027591;28;20026;-67
2022/05/29 08:59:20;;;;;;;5.70;1.40;;;;;;;13.70;94.35;101681.16;5029958;28;20025;-66
2022/05/29 09:01:59;;;;;;;1.38;1.00;;;;;;;14.32;90.84;101687.22;5018088;28;20036;-66
2022/05/29 09:04:27;;;;;;;4.30;0.98;;;;;;;15.17;85.43;101688.44;5020197;28;20034;-66
2022/05/29 09:06:56;;;;;;;2.22;0.80;;;;;;;15.26;80.94;101684.44;5010983;28;20033;-66
2022/05/29 09:09:36;;;;;;;3.33;1.20;;;;;;;15.14;80.47;101683.28;5029164;28;20041;-66
2022/05/29 09:12:07;;;;;;;2.17;0.90;;;;;;;15.01;83.76;101692.81;5015264;28;20029;-66
2022/05/29 09:15:00;;;;;;;2.38;1.10;;;;;;;14.48;83.89;101687.34;5041039;28;20032;-66
2022/05/29 09:17:32;;;;;;;3.65;1.05;;;;;;;14.11;83.34;101678.41;5029890;28;20056;-67
2022/05/29 09:20:02;;;;;;;1.95;0.80;;;;;;;13.83;86.76;101681.47;5031102;28;20473;-65
2022/05/29 09:22:33;;;;;;;3.10;0.88;;;;;;;13.63;86.03;101682.34;5012689;28;20033;-65
2022/05/29 09:25:09;;;;;;;3.83;1.20;;;;;;;13.75;89.94;101679.16;5013302;28;20075;-66
2022/05/29 09:27:37;;;;;;;3.83;1.13;;;;;;;14.33;89.10;101669.41;5032596;28;20032;-66
2022/05/29 09:30:05;;;;;;;4.00;1.13;;;;;;;14.97;86.87;101670.75;5033053;28;20092;-66
2022/05/29 09:32:33;;;;;;;4.72;1.13;;;;;;;15.50;80.07;101665.41;5013374;28;20045;-66
2022/05/29 09:35:05;;;;;;;3.00;1.20;;;;;;;16.72;77.84;101669.47;5016065;28;20056;-66
2022/05/29 09:37:39;;;;;;;;;;;;;;;16.80;73.41;101663.69;5031755;28;20052;-66
2022/05/29 09:40:14;;;;;;;4.53;0.95;;;;;;;16.64;75.80;101672.59;5031001;28;20376;-66
2022/05/29 09:42:42;;;;;;;7.53;1.20;;;;;;;16.17;73.18;101670.78;5031288;28;20025;-66
2022/05/29 09:45:24;;;;;;;3.35;1.17;;;;;;;15.96;75.18;101672.81;5030939;28;20033;-66
2022/05/29 09:50:53;;;;;;;6.38;1.60;;;;;;;14.50;84.56;101680.13;5016249;28;20527;-66
2022/05/29 09:53:28;;;;;;;5.93;1.35;;;;;;;13.83;88.81;101682.31;5013085;28;20087;-66
2022/05/29 09:56:03;;;;;;;4.78;1.40;;;;;;;13.14;92.97;101694.16;5015053;28;20013;-65
2022/05/29 09:58:52;;;;;;;6.30;1.17;;;;;;;12.76;98.25;101683.28;5034363;28;20044;-65
2022/05/29 10:01:28;;;;;;;9.60;1.70;;;;;;;12.48;100.00;101687.06;5034200;28;20384;-66
2022/05/29 10:03:57;;;;;;;4.22;1.15;;;;;;;12.25;100.00;101687.94;5033533;28;20497;-64
2022/05/29 10:06:22;;;;;;;4.18;1.50;;;;;;;12.13;100.00;101683.97;5039185;28;20032;-65
2022/05/29 10:08:49;;;;;;;5.25;1.30;;;;;;;12.13;100.00;101684.84;5032940;28;20029;-65
2022/05/29 10:11:30;;;;;;;3.45;1.23;;;;;;;12.67;100.00;101678.34;5026050;28;20124;-65
2022/05/29 10:14:01;;;;;;;9.52;2.28;;;;;;;13.15;99.05;101682.59;5032784;28;20044;-65
2022/05/29 10:16:38;;;;;;;6.53;1.92;;;;;;;13.51;98.37;101676.63;5029629;28;20508;-66
2022/05/29 10:19:09;;;;;;;7.45;1.65;;;;;;;13.86;96.48;101671.56;5010282;28;20481;-66
2022/05/29 10:21:50;;;;;;;8.20;1.80;;;;;;;14.27;94.12;101675.88;5028026;28;20025;-67
2022/05/29 10:24:37;;;;;;;10.43;1.85;;;;;;;14.02;92.67;101665.53;5032989;28;20063;-66
2022/05/29 10:27:06;;;;;;;7.97;1.75;;;;;;;13.50;93.18;101672.25;5033105;28;20041;-67
2022/05/29 10:29:36;;;;;;;8.38;1.90;;;;;;;13.15;95.62;101677.25;5037919;28;20029;-66
2022/05/29 10:32:07;;;;;;;8.82;1.90;;;;;;;13.14;99.23;101669.34;5038060;28;20029;-66
2022/05/29 10:34:37;;;;;;;10.10;2.25;;;;;;;13.44;98.43;101665.41;5041441;28;20385;-67
2022/05/29 10:37:39;;;;;;;9.60;1.98;;;;;;;14.14;97.23;101667.59;5027237;28;20122;-66
2022/05/29 10:40:13;;;;;;;;;;;;;;;14.56;91.71;101660.31;5033593;28;20226;-67
2022/05/29 10:42:44;;;;;;;5.80;1.65;;;;;;;14.67;86.46;101670.50;5039084;28;20329;-68
2022/05/29 10:45:21;;;;;;;7.30;2.17;;;;;;;15.04;89.29;101672.19;5029585;28;20082;-68
2022/05/29 10:48:30;;;;;;;10.48;2.08;;;;;;;15.22;85.51;101673.06;5011648;28;20033;-68
2022/05/29 10:51:21;;;;;;;7.63;2.60;;;;;;;14.49;85.15;101680.19;5033007;28;20112;-68
2022/05/29 10:53:56;;;;;;;8.50;1.83;;;;;;;13.76;85.44;101675.56;5033319;28;20026;-68
2022/05/29 10:56:46;;;;;;;9.27;1.90;;;;;;;13.61;90.33;101677.09;5033723;28;20021;-68
2022/05/29 10:59:41;;;;;;;9.73;2.20;;;;;;;13.81;88.21;101673.56;5033811;28;20025;-68
2022/05/29 11:06:09;;;;;;;7.25;2.42;;;;;;;14.39;85.57;101672.66;5033268;28;20056;-69
2022/05/29 11:08:59;;;;;;;7.47;1.98;;;;;;;14.84;82.91;101667.84;4983890;28;20084;-68
2022/05/29 11:11:40;;;;;;;8.82;2.10;;;;;;;15.04;75.96;101668.66;5011529;28;20029;-68
2022/05/29 11:14:32;;;;;;;7.20;1.63;;;;;;;15.23;74.66;101665.94;5029448;28;20033;-68
2022/05/29 11:17:07;;;;;;;7.00;2.00;;;;;;;15.87;74.75;101659.03;5015306;28;20040;-68
2022/05/29 11:19:49;;;;;;;6.25;1.67;;;;;;;16.18;71.98;101659.16;5007001;28;20048;-68
2022/05/29 11:22:25;;;;;;;6.90;2.53;;;;;;;16.50;67.80;101653.81;5024862;28;20029;-68
2022/05/29 11:24:59;;;;;;;7.70;2.20;;;;;;;16.82;68.20;101656.44;5044851;28;20029;-69
2022/05/29 11:27:46;;;;;;;6.78;1.50;;;;;;;16.17;66.23;101658.28;5014525;28;20033;-68
2022/05/29 11:30:26;;;;;;;7.50;2.33;;;;;;;16.34;69.97;101653.81;5032723;28;20025;-68
2022/05/29 11:33:04;;;;;;;7.35;2.05;;;;;;;15.79;66.06;101653.19;5031858;28;20040;-67
2022/05/29 11:35:35;;;;;;;7.35;1.73;;;;;;;15.63;69.26;101652.31;5032473;28;20029;-67
2022/05/29 11:38:20;;;;;;;6.72;1.90;;;;;;;15.38;68.97;101649.13;5014513;28;20504;-68
2022/05/29 11:40:51;;;;;;;8.57;2.15;;;;;;;15.56;69.87;101649.06;5014005;28;20515;-68
2022/05/29 11:43:52;;;;;;;8.25;1.90;;;;;;;15.57;67.39;101634.78;5031971;28;20029;-66
2022/05/29 11:52:32;;;;;;;7.65;2.00;;;;;;;15.60;67.72;101642.66;5032369;28;20037;-66
2022/05/29 11:55:17;;;;;;;6.35;1.55;;;;;;;15.40;69.24;101644.56;5012665;28;20378;-67
2022/05/29 11:57:52;;;;;;;4.47;1.65;;;;;;;15.07;67.94;101632.00;5031241;28;20119;-67
2022/05/29 12:00:21;;;;;;;6.13;1.63;;;;;;;14.55;69.18;101637.25;5032368;28;20034;-67
2022/05/29 12:03:01;;;;;;;8.27;1.52;;;;;;;14.25;70.23;101644.00;5031463;28;20060;-66
2022/05/29 12:05:26;;;;;;;5.20;1.40;;;;;;;13.97;72.72;101635.59;5014486;28;20120;-67
2022/05/29 12:07:54;;;;;;;8.52;1.92;;;;;;;14.07;72.60;101636.88;5014032;28;20115;-67
2022/05/29 12:10:27;;;;;;;9.63;1.60;;;;;;;14.17;70.97;101627.53;5031522;28;20117;-67
2022/05/29 12:13:21;;;;;;;6.03;1.40;;;;;;;14.51;70.80;101633.03;5036427;28;20028;-67
2022/05/29 12:15:53;;;;;;;5.93;1.33;;;;;;;14.96;69.06;101625.50;5024804;28;20334;-67
2022/05/29 12:18:20;;;;;;;5.15;1.45;;;;;;;15.13;68.68;101632.63;5030434;28;20053;-67
2022/05/29 12:21:00;;;;;;;5.50;1.35;;;;;;;15.87;64.07;101626.13;5013690;28;20044;-67
2022/05/29 12:23:30;;;;;;;3.28;1.05;;;;;;;16.37;65.56;101627.78;5031532;28;20037;-67
2022/05/29 12:26:08;;;;;;;6.32;1.38;;;;;;;16.44;62.05;101627.44;5030923;28;20021;-66